Time;durP1;ratioP1;P1;durP2;ratioP2;P2;SDS_P1;SDS_P2;PMS_P1;PMS_P2;Temp;Humidity;BMP_temperature;BMP_pressure;BME280_temperature;BME280_humidity;BME280_pressure;Samples;Min_cycle;Max_cycle;Signal;HPM_P1;HPM_P2
2022/01/19 00:01:08;;;;;;;12.13;8.90;;;;;;;3.82;86.65;102610.50;5017603;28;20032;-24
2022/01/19 00:03:34;;;;;;;14.18;8.85;;;;;;;3.82;86.68;102605.28;5019562;28;20022;-24
2022/01/19 00:06:00;;;;;;;12.73;8.95;;;;;;;3.79;86.41;102598.22;5021725;28;20394;-24
2022/01/19 00:08:28;;;;;;;11.38;8.63;;;;;;;3.82;86.58;102615.72;5022471;28;20021;-24
2022/01/19 00:10:53;;;;;;;13.65;9.30;;;;;;;3.80;86.92;102614.78;5017648;28;20069;-23
2022/01/19 00:13:20;;;;;;;13.50;9.23;;;;;;;3.79;86.39;102615.56;5019469;28;20557;-23
2022/01/19 00:15:46;;;;;;;13.55;8.48;;;;;;;3.78;86.10;102599.03;5019438;28;20049;-24
2022/01/19 00:18:12;;;;;;;14.65;9.25;;;;;;;3.78;86.86;102592.91;5018156;28;20120;-25
2022/01/19 00:20:38;;;;;;;14.48;9.10;;;;;;;3.78;86.34;102592.91;5021280;28;20120;-24
2022/01/19 00:23:05;;;;;;;13.75;8.88;;;;;;;3.77;86.50;102580.69;5016646;28;20017;-24
2022/01/19 00:25:32;;;;;;;11.98;8.63;;;;;;;3.72;86.39;102570.91;5018876;28;20385;-24
2022/01/19 00:27:58;;;;;;;11.05;8.80;;;;;;;3.74;86.59;102565.78;5022220;28;20052;-24
2022/01/19 00:30:26;;;;;;;11.45;9.32;;;;;;;3.72;86.55;102565.69;5026345;28;20037;-24
2022/01/19 00:32:52;;;;;;;11.52;8.90;;;;;;;3.75;86.09;102579.69;5024259;28;20022;-24
2022/01/19 00:35:18;;;;;;;12.35;9.55;;;;;;;3.73;86.64;102569.19;5023370;28;20095;-24
2022/01/19 00:37:44;;;;;;;12.40;8.68;;;;;;;3.71;86.47;102565.63;5025476;28;20482;-24
2022/01/19 00:40:12;;;;;;;11.77;8.63;;;;;;;3.71;86.63;102571.72;5025950;28;20025;-25
2022/01/19 00:42:38;;;;;;;9.52;8.00;;;;;;;3.70;86.04;102564.72;5023108;28;20116;-24
2022/01/19 00:45:05;;;;;;;9.65;7.43;;;;;;;3.70;86.26;102569.06;5024140;28;20025;-24
2022/01/19 00:47:32;;;;;;;9.90;7.55;;;;;;;3.69;86.57;102573.38;5024269;28;20041;-24
2022/01/19 00:49:57;;;;;;;17.95;9.77;;;;;;;3.69;86.27;102567.25;5026806;28;20036;-24
2022/01/19 00:52:23;;;;;;;9.65;7.90;;;;;;;3.68;86.18;102568.97;5024672;28;20026;-24
2022/01/19 00:54:49;;;;;;;11.55;7.93;;;;;;;3.68;86.84;102561.16;5027115;28;20041;-24
2022/01/19 00:57:15;;;;;;;10.27;8.13;;;;;;;3.68;86.47;102555.91;5024871;28;20087;-25
2022/01/19 00:59:41;;;;;;;12.65;8.05;;;;;;;3.65;86.28;102555.75;5020465;28;20401;-25
2022/01/19 01:02:07;;;;;;;13.30;7.78;;;;;;;3.65;86.29;102555.75;5024383;28;20021;-23
2022/01/19 01:04:33;;;;;;;11.77;7.80;;;;;;;3.66;86.70;102551.41;5024186;28;20024;-24
2022/01/19 01:07:00;;;;;;;12.10;7.70;;;;;;;3.64;86.55;102543.53;5025424;28;20037;-25
2022/01/19 01:09:26;;;;;;;10.10;8.10;;;;;;;3.63;86.62;102544.34;5023851;28;20026;-24
2022/01/19 01:12:13;;;;;;;10.38;8.57;;;;;;;3.64;86.49;102542.63;5005265;28;20037;-23
2022/01/19 01:20:10;;;;;;;11.10;6.93;;;;;;;3.62;86.15;102539.94;5021718;28;20036;-25
2022/01/19 01:22:37;;;;;;;9.45;7.00;;;;;;;3.61;86.59;102532.94;5021690;28;20092;-24
2022/01/19 01:25:04;;;;;;;10.90;7.88;;;;;;;3.61;86.34;102524.22;5023625;28;20029;-24
2022/01/19 01:27:30;;;;;;;10.68;7.47;;;;;;;3.58;86.54;102523.25;5020555;28;20071;-24
2022/01/19 01:29:56;;;;;;;12.15;7.93;;;;;;;3.59;86.63;102518.91;5018580;28;20378;-24
2022/01/19 01:32:22;;;;;;;10.15;7.75;;;;;;;3.57;86.66;102505.78;5016470;28;20115;-24
2022/01/19 01:34:48;;;;;;;10.43;7.68;;;;;;;3.58;86.36;102501.47;5016621;28;20430;-24
2022/01/19 01:37:13;;;;;;;10.57;7.88;;;;;;;3.57;86.48;102499.69;5019648;28;20033;-24
2022/01/19 01:39:39;;;;;;;8.48;6.50;;;;;;;3.56;86.78;102477.91;5024180;28;20128;-23
2022/01/19 01:42:10;;;;;;;9.48;7.40;;;;;;;3.55;86.54;102460.47;5021628;28;20040;-24
2022/01/19 01:44:38;;;;;;;11.80;7.43;;;;;;;3.55;87.02;102443.91;5023723;28;20489;-24
2022/01/19 01:47:05;;;;;;;9.65;6.75;;;;;;;3.54;86.65;102444.75;5017397;28;20034;-24
2022/01/19 01:53:16;;;;;;;10.48;7.07;;;;;;;3.54;86.25;102434.31;5013752;28;20022;-25
2022/01/19 01:55:13;;;;;;;10.00;7.43;;;;;;;3.52;86.28;102431.63;5016775;28;20135;-24
2022/01/19 01:57:39;;;;;;;8.90;7.03;;;;;;;3.52;86.31;102433.31;5019025;28;20048;-24
2022/01/19 02:00:07;;;;;;;10.05;7.22;;;;;;;3.50;86.53;102425.41;5024358;28;20060;-24
2022/01/19 02:02:33;;;;;;;10.23;6.50;;;;;;;3.50;86.04;102429.75;5022349;28;20420;-24
2022/01/19 02:04:58;;;;;;;11.02;6.82;;;;;;;3.48;86.15;102427.06;5023924;28;20485;-24
2022/01/19 02:07:43;;;;;;;10.73;6.75;;;;;;;3.48;86.56;102432.28;5019422;28;20025;-24
2022/01/19 02:10:27;;;;;;;11.10;7.10;;;;;;;3.45;86.15;102416.47;5012136;28;20076;-24
2022/01/19 02:23:52;;;;;;;8.15;6.43;;;;;;;3.36;86.54;102385.63;5022479;28;20452;-25
2022/01/19 02:26:34;;;;;;;8.52;6.32;;;;;;;3.36;86.28;102380.41;5026619;28;20049;-24
2022/01/19 02:29:07;;;;;;;8.52;6.13;;;;;;;3.33;86.04;102369.81;5026352;28;20170;-24
2022/01/19 02:42:13;;;;;;;8.20;6.55;;;;;;;3.21;86.00;102339.72;5026579;28;20147;-24
2022/01/19 02:46:38;;;;;;;9.90;6.65;;;;;;;3.19;85.82;102341.38;5028495;28;20044;-24
2022/01/19 02:49:53;;;;;;;7.60;6.63;;;;;;;3.14;85.74;102342.84;5029539;28;20021;-24
2022/01/19 02:52:21;;;;;;;8.93;6.90;;;;;;;3.11;85.78;102342.72;5027762;28;20084;-25
2022/01/19 02:54:46;;;;;;;8.82;6.65;;;;;;;3.07;85.76;102331.22;5028768;28;20028;-24
2022/01/19 02:57:14;;;;;;;9.25;6.43;;;;;;;3.05;85.60;102331.97;5030318;28;20026;-25
2022/01/19 03:00:10;;;;;;;9.57;6.50;;;;;;;3.01;85.55;102317.00;5027829;28;20025;-24
2022/01/19 03:10:40;;;;;;;11.35;6.43;;;;;;;2.90;85.42;102306.94;5028993;28;20040;-22
2022/01/19 03:13:06;;;;;;;11.93;6.47;;;;;;;2.86;85.34;102294.59;5028813;28;20029;-24
2022/01/19 03:15:32;;;;;;;9.68;6.50;;;;;;;2.82;85.43;102298.78;5026217;28;20044;-24
2022/01/19 03:17:59;;;;;;;9.40;5.80;;;;;;;2.81;85.66;102293.47;5026987;28;20093;-25
2022/01/19 03:20:26;;;;;;;9.18;6.85;;;;;;;2.76;85.40;102279.31;5028588;28;20397;-24
2022/01/19 03:23:07;;;;;;;8.25;5.50;;;;;;;2.74;85.30;102284.47;5023879;28;20017;-22
2022/01/19 03:25:38;;;;;;;8.47;6.50;;;;;;;2.71;85.38;102280.81;5027345;28;20024;-24
2022/01/19 03:28:07;;;;;;;9.40;6.00;;;;;;;2.67;85.11;102269.34;5026481;28;20280;-24
2022/01/19 03:30:33;;;;;;;6.75;5.75;;;;;;;2.63;85.13;102254.41;5028352;28;20029;-24
2022/01/19 03:32:59;;;;;;;8.07;6.07;;;;;;;2.60;85.23;102251.63;5026584;28;20059;-24
2022/01/19 03:35:25;;;;;;;8.85;6.78;;;;;;;2.57;85.71;102244.56;5026137;28;20494;-24
2022/01/19 03:37:51;;;;;;;8.80;6.57;;;;;;;2.54;85.00;102241.81;5024513;28;20038;-23
2022/01/19 03:40:16;;;;;;;7.60;6.22;;;;;;;2.50;85.23;102240.75;5027312;28;20022;-25
2022/01/19 03:42:42;;;;;;;9.07;6.38;;;;;;;2.48;85.12;102238.88;5024728;28;20140;-24
2022/01/19 03:45:09;;;;;;;9.10;6.95;;;;;;;2.42;85.31;102229.06;5028231;28;20029;-25
2022/01/19 03:47:44;;;;;;;9.07;5.85;;;;;;;2.39;84.97;102223.69;5021069;28;20025;-24
2022/01/19 03:50:10;;;;;;;10.55;6.38;;;;;;;2.36;84.98;102221.81;5028626;28;20057;-24
2022/01/19 03:52:36;;;;;;;10.77;6.43;;;;;;;2.31;85.25;102211.19;5024253;28;20060;-24
2022/01/19 03:55:03;;;;;;;9.18;6.88;;;;;;;2.29;84.85;102211.91;5027423;28;20056;-24
2022/01/19 03:57:29;;;;;;;9.13;6.18;;;;;;;2.25;85.08;102202.16;5025320;28;20507;-23
2022/01/19 03:59:55;;;;;;;7.28;5.68;;;;;;;2.22;85.02;102204.63;5019281;28;20033;-24
2022/01/19 04:02:21;;;;;;;10.52;6.80;;;;;;;2.18;85.12;102208.78;5026838;28;20389;-23
2022/01/19 04:04:53;;;;;;;8.57;6.38;;;;;;;2.14;85.16;102201.66;5025336;28;20021;-24
2022/01/19 04:07:18;;;;;;;8.73;6.45;;;;;;;2.10;84.70;102205.78;5023739;28;20061;-23
2022/01/19 04:09:45;;;;;;;9.68;6.68;;;;;;;2.06;84.89;102193.44;5022882;28;20057;-24
2022/01/19 04:12:17;;;;;;;12.32;6.38;;;;;;;2.03;84.77;102188.06;5026266;28;20390;-22
2022/01/19 04:14:43;;;;;;;8.27;6.57;;;;;;;2.00;84.95;102172.31;5026464;28;20041;-24
2022/01/19 04:17:11;;;;;;;8.77;6.57;;;;;;;1.96;84.88;102159.97;5022074;28;20029;-23
2022/01/19 04:22:11;;;;;;;10.02;6.25;;;;;;;1.88;84.76;102143.97;5023003;28;20029;-24
2022/01/19 04:24:37;;;;;;;;;;;;;;;1.86;84.92;102137.78;5024593;28;20032;-23
2022/01/19 04:32:43;;;;;;;10.38;6.43;;;;;;;1.74;84.89;102132.84;5021627;28;20389;-24
2022/01/19 04:35:12;;;;;;;9.07;6.32;;;;;;;1.70;85.06;102126.59;5024322;28;20033;-24
2022/01/19 04:37:51;;;;;;;9.52;6.07;;;;;;;1.66;84.97;102117.75;5027242;28;20033;-23
2022/01/19 05:07:44;;;;;;;9.52;6.78;;;;;;;1.31;85.26;102096.03;5020395;28;20034;-24
2022/01/19 05:15:39;;;;;;;10.52;6.95;;;;;;;1.24;85.46;102088.72;5023728;28;20808;-24
2022/01/19 05:18:05;;;;;;;12.40;6.57;;;;;;;1.21;85.82;102080.75;5023122;28;20060;-21
2022/01/19 05:20:31;;;;;;;9.35;6.97;;;;;;;1.19;85.56;102069.38;5023128;28;20067;-24
2022/01/19 05:22:57;;;;;;;8.77;6.47;;;;;;;1.17;85.57;102063.22;5024902;28;20025;-24
2022/01/19 05:25:23;;;;;;;9.68;6.80;;;;;;;1.14;85.63;102053.56;5022789;28;20021;-24
2022/01/19 05:27:49;;;;;;;10.88;7.10;;;;;;;1.11;85.45;102041.31;5023405;28;20567;-24
2022/01/19 05:30:17;;;;;;;8.23;6.43;;;;;;;1.10;85.37;102043.81;5025610;28;20018;-23
2022/01/19 05:32:46;;;;;;;8.52;6.35;;;;;;;1.07;85.43;102033.25;5021165;28;20843;-25
2022/01/19 05:35:12;;;;;;;9.82;7.07;;;;;;;1.04;85.35;102031.41;5021990;28;20037;-24
2022/01/19 05:37:38;;;;;;;11.50;7.15;;;;;;;1.02;85.36;102022.63;5023930;28;20025;-24
2022/01/19 05:40:08;;;;;;;9.00;7.32;;;;;;;1.00;85.31;102043.31;5022725;28;20576;-24
2022/01/19 05:42:35;;;;;;;6.72;6.00;;;;;;;0.99;85.40;102040.63;5022525;28;20083;-22
2022/01/19 05:45:01;;;;;;;8.02;6.38;;;;;;;0.96;85.52;102030.06;5024240;28;20044;-23
2022/01/19 05:47:27;;;;;;;10.70;6.88;;;;;;;0.94;85.49;102024.84;5023724;28;20509;-23
2022/01/19 05:49:52;;;;;;;9.02;7.20;;;;;;;0.92;85.69;102023.84;5020438;28;20114;-24
2022/01/19 05:52:19;;;;;;;7.82;6.18;;;;;;;0.91;85.58;102018.56;5019594;28;20072;-24
2022/01/19 05:54:46;;;;;;;10.10;7.28;;;;;;;0.88;85.50;102009.81;5019094;28;20022;-24
2022/01/19 05:57:12;;;;;;;8.80;6.68;;;;;;;0.85;86.01;102008.75;5020522;28;20129;-23
2022/01/19 05:59:38;;;;;;;9.95;7.20;;;;;;;0.84;85.82;102007.84;5023115;28;20033;-24
2022/01/19 06:02:04;;;;;;;9.85;6.78;;;;;;;0.84;85.85;102012.16;5023431;28;20039;-24
2022/01/19 06:04:30;;;;;;;10.43;7.38;;;;;;;0.81;85.75;101997.31;5026208;28;20025;-24
2022/01/19 06:06:56;;;;;;;8.70;7.32;;;;;;;0.81;86.03;101994.72;5029027;28;20091;-24
2022/01/19 06:12:04;;;;;;;10.45;6.93;;;;;;;0.79;85.86;101985.94;5025575;28;20025;-24
2022/01/19 06:14:30;;;;;;;10.13;7.18;;;;;;;0.77;86.26;101983.25;5026941;28;20025;-24
2022/01/19 06:16:56;;;;;;;9.07;7.75;;;;;;;0.77;86.05;101979.78;5023857;28;20388;-23
2022/01/19 06:19:22;;;;;;;10.57;7.43;;;;;;;0.77;86.41;101972.00;5027084;28;20048;-23
2022/01/19 06:21:47;;;;;;;12.15;8.63;;;;;;;0.77;86.54;101972.00;5024104;28;20025;-24
2022/01/19 06:24:13;;;;;;;10.90;7.72;;;;;;;0.75;86.56;101958.94;5022366;28;20049;-24
2022/01/19 06:26:39;;;;;;;13.25;8.70;;;;;;;0.77;86.25;101961.59;5021902;28;20025;-24
2022/01/19 06:29:05;;;;;;;11.40;8.40;;;;;;;0.75;86.44;101958.03;5024018;28;20056;-21
2022/01/19 06:31:31;;;;;;;10.20;8.10;;;;;;;0.75;86.55;101963.22;5022611;28;20072;-24
2022/01/19 06:33:57;;;;;;;11.25;8.88;;;;;;;0.74;86.48;101977.03;5024956;28;20140;-24
2022/01/19 06:36:23;;;;;;;11.50;9.30;;;;;;;0.74;86.65;101969.22;5026327;28;20056;-24
2022/01/19 06:38:49;;;;;;;13.27;9.50;;;;;;;0.73;86.61;101975.25;5021028;28;20061;-24
2022/01/19 06:41:14;;;;;;;15.57;10.88;;;;;;;0.74;86.58;101971.81;5021694;28;20072;-23
2022/01/19 06:43:40;;;;;;;15.25;10.50;;;;;;;0.73;86.42;101965.72;5024341;28;20052;-24
2022/01/19 06:46:06;;;;;;;12.80;9.63;;;;;;;0.73;86.58;101954.47;5025899;28;20029;-24
2022/01/19 06:48:32;;;;;;;12.88;9.63;;;;;;;0.71;86.55;101953.47;5027029;28;20018;-24
2022/01/19 06:50:58;;;;;;;14.45;10.45;;;;;;;0.71;86.52;101951.78;5018394;28;20385;-23
2022/01/19 06:53:23;;;;;;;12.98;10.25;;;;;;;0.71;86.38;101949.19;5021998;28;20433;-24
2022/01/19 06:55:49;;;;;;;11.50;9.68;;;;;;;0.71;86.34;101945.69;5021451;28;20021;-23
2022/01/19 06:58:16;;;;;;;13.55;9.48;;;;;;;0.71;86.59;101945.69;5020939;28;20384;-21
2022/01/19 07:00:42;;;;;;;12.48;9.70;;;;;;;0.71;86.66;101940.50;5021316;28;20018;-24
2022/01/19 07:03:09;;;;;;;13.70;9.52;;;;;;;0.71;86.75;101935.31;5021047;28;20018;-22
2022/01/19 07:05:35;;;;;;;14.05;9.52;;;;;;;0.69;86.36;101932.63;5021046;28;21260;-24
2022/01/19 07:08:00;;;;;;;12.68;9.10;;;;;;;0.70;86.57;101934.41;5018703;28;20024;-24
2022/01/19 07:10:31;;;;;;;12.75;9.63;;;;;;;0.71;86.57;101935.31;5018981;28;20029;-24
2022/01/19 07:13:00;;;;;;;15.18;10.70;;;;;;;0.70;86.80;101930.94;5015815;28;20092;-24
2022/01/19 07:15:26;;;;;;;12.43;9.65;;;;;;;0.71;86.43;101933.59;5018294;28;20041;-22
2022/01/19 07:17:52;;;;;;;12.95;9.35;;;;;;;0.70;86.56;101916.22;5021208;28;20026;-23
2022/01/19 07:20:18;;;;;;;12.10;9.85;;;;;;;0.71;86.75;101920.63;5021802;28;20032;-24
2022/01/19 07:22:44;;;;;;;12.32;9.20;;;;;;;0.72;86.63;101912.00;5016760;28;20525;-24
2022/01/19 07:25:10;;;;;;;13.02;8.73;;;;;;;0.73;86.60;101908.59;5023121;28;20037;-24
2022/01/19 07:27:36;;;;;;;11.65;9.30;;;;;;;0.74;86.83;101899.09;5020935;28;20028;-24
2022/01/19 07:30:03;;;;;;;14.35;9.65;;;;;;;0.73;86.90;101893.00;5022751;28;20047;-24
2022/01/19 07:32:33;;;;;;;11.98;9.23;;;;;;;0.75;86.92;101888.81;5018088;28;20482;-25
2022/01/19 07:34:59;;;;;;;14.40;9.57;;;;;;;0.76;86.71;101889.66;5018031;28;20045;-24
2022/01/19 07:37:25;;;;;;;12.30;9.65;;;;;;;0.78;86.77;101901.03;5020834;28;20033;-24
2022/01/19 07:39:51;;;;;;;13.68;8.63;;;;;;;0.79;87.06;101892.44;5020708;28;20029;-24
2022/01/19 07:42:17;;;;;;;12.30;9.30;;;;;;;0.80;87.06;101882.94;5014712;28;20030;-23
2022/01/19 07:44:42;;;;;;;14.68;9.02;;;;;;;0.81;87.10;101883.03;5022280;28;20120;-23
2022/01/19 07:47:08;;;;;;;11.90;8.82;;;;;;;0.83;86.96;101880.50;5018690;28;20494;-25
2022/01/19 07:49:34;;;;;;;16.58;9.60;;;;;;;0.83;87.08;101880.50;5017368;28;20091;-22
2022/01/19 07:52:00;;;;;;;14.98;10.27;;;;;;;0.83;86.99;101868.38;5024188;28;20041;-23
2022/01/19 07:54:25;;;;;;;12.07;8.90;;;;;;;0.86;87.24;101863.34;5022849;28;20018;-25
2022/01/19 07:56:51;;;;;;;13.55;9.32;;;;;;;0.88;87.25;101869.53;5026821;28;20048;-23
2022/01/19 07:59:17;;;;;;;13.50;9.02;;;;;;;0.89;87.30;101873.91;5024991;28;20025;-23
2022/01/19 08:01:44;;;;;;;13.98;8.88;;;;;;;0.89;87.15;101863.50;5022893;28;20562;-24
2022/01/19 08:04:09;;;;;;;13.20;9.80;;;;;;;0.93;87.25;101868.88;5028018;28;20033;-24
2022/01/19 08:06:35;;;;;;;13.15;8.93;;;;;;;0.94;87.07;101866.34;5020709;28;20123;-24
2022/01/19 08:09:03;;;;;;;14.02;9.65;;;;;;;0.95;86.95;101856.84;5028238;28;20056;-24
2022/01/19 08:11:28;;;;;;;12.52;9.80;;;;;;;0.95;87.47;101855.13;5024085;28;20079;-25
2022/01/19 08:13:54;;;;;;;12.82;8.75;;;;;;;0.97;87.15;101845.69;5028571;28;20026;-24
2022/01/19 08:16:21;;;;;;;13.35;9.65;;;;;;;1.00;87.16;101860.56;5025019;28;20029;-23
2022/01/19 08:18:47;;;;;;;13.32;9.63;;;;;;;1.01;87.37;101859.75;5027909;28;20025;-23
2022/01/19 08:21:13;;;;;;;15.90;10.45;;;;;;;1.02;87.32;101845.94;5025229;28;20064;-24
2022/01/19 08:23:39;;;;;;;13.73;9.57;;;;;;;1.03;86.99;101837.31;5024216;28;20053;-23
2022/01/19 08:26:06;;;;;;;13.73;10.60;;;;;;;1.05;87.06;101834.78;5024116;28;20041;-23
2022/01/19 08:28:32;;;;;;;14.07;9.93;;;;;;;1.06;87.10;101834.00;5025360;28;20025;-23
2022/01/19 08:30:58;;;;;;;13.50;9.40;;;;;;;1.08;87.13;101840.13;5022556;28;20160;-24
2022/01/19 08:33:23;;;;;;;13.98;9.50;;;;;;;1.09;87.41;101836.72;5024290;28;20026;-23
2022/01/19 08:35:51;;;;;;;18.08;10.88;;;;;;;1.10;87.04;101831.59;5025707;28;20033;-24
2022/01/19 08:38:18;;;;;;;13.95;10.63;;;;;;;1.10;87.25;101821.19;5020524;28;20537;-23
2022/01/19 08:40:44;;;;;;;15.45;10.40;;;;;;;1.12;87.22;101819.59;5024634;28;20041;-24
2022/01/19 08:43:10;;;;;;;13.90;9.68;;;;;;;1.13;87.23;101808.38;5022271;28;20024;-24
2022/01/19 08:45:36;;;;;;;14.02;8.98;;;;;;;1.17;87.40;101813.72;5021522;28;20032;-24
2022/01/19 08:48:03;;;;;;;13.45;10.02;;;;;;;1.17;87.07;101804.22;5023960;28;20056;-24
2022/01/19 08:50:29;;;;;;;13.32;9.32;;;;;;;1.18;87.09;101803.41;5022154;28;20110;-21
2022/01/19 08:52:55;;;;;;;15.20;10.20;;;;;;;1.20;87.34;101796.53;5022473;28;20040;-23
2022/01/19 08:55:21;;;;;;;13.88;10.05;;;;;;;1.22;87.19;101799.22;5022186;28;20033;-24
2022/01/19 08:57:47;;;;;;;12.48;9.52;;;;;;;1.23;87.04;101794.09;5022317;28;20032;-24
2022/01/19 09:00:16;;;;;;;12.02;9.13;;;;;;;1.25;87.28;101794.16;5024327;28;20030;-24
2022/01/19 09:02:42;;;;;;;10.52;8.55;;;;;;;1.27;86.93;101793.41;5023176;28;20769;-24
2022/01/19 09:05:08;;;;;;;13.98;9.80;;;;;;;1.28;87.00;101783.94;5025432;28;20413;-24
2022/01/19 09:07:35;;;;;;;11.82;9.20;;;;;;;1.30;87.28;101787.47;5023251;28;20094;-22
2022/01/19 09:10:01;;;;;;;12.70;9.40;;;;;;;1.31;86.79;101777.97;5021628;28;20045;-24
2022/01/19 09:12:27;;;;;;;12.93;9.27;;;;;;;1.33;87.18;101785.03;5020689;28;20022;-24
2022/01/19 09:14:52;;;;;;;12.90;9.13;;;;;;;1.35;87.31;101778.19;5020842;28;20033;-24
2022/01/19 09:17:18;;;;;;;13.10;9.77;;;;;;;1.37;87.11;101762.69;5020037;28;20029;-24
2022/01/19 09:19:44;;;;;;;16.45;8.77;;;;;;;1.38;87.28;101760.16;5024160;28;20521;-24
2022/01/19 09:22:10;;;;;;;12.07;9.15;;;;;;;1.40;87.36;101761.09;5024933;28;20033;-25
2022/01/19 09:24:38;;;;;;;11.63;8.32;;;;;;;1.42;87.01;101750.75;5021748;28;20029;-24
2022/01/19 09:27:05;;;;;;;11.23;8.38;;;;;;;1.44;87.07;101748.25;5024566;28;20468;-24
2022/01/19 09:29:30;;;;;;;14.00;9.30;;;;;;;1.48;87.42;101752.75;5020199;28;20021;-23
2022/01/19 09:31:59;;;;;;;11.35;9.25;;;;;;;1.50;87.42;101751.13;5021826;28;20466;-24
2022/01/19 09:34:24;;;;;;;14.27;10.27;;;;;;;1.51;87.81;101746.00;5026186;28;20031;-24
2022/01/19 09:36:50;;;;;;;11.30;9.02;;;;;;;1.53;87.52;101727.84;5028898;28;20037;-24
2022/01/19 09:39:24;;;;;;;9.80;8.60;;;;;;;1.57;87.68;101737.56;5030611;28;20040;-24
2022/01/19 09:41:50;;;;;;;14.57;10.02;;;;;;;1.58;87.59;101726.38;5029176;28;20120;-23
2022/01/19 09:44:22;;;;;;;11.30;9.43;;;;;;;1.60;87.59;101724.69;5029150;28;20176;-24
2022/01/19 09:46:48;;;;;;;13.88;10.43;;;;;;;1.63;87.69;101737.84;5027698;28;20405;-24
2022/01/19 09:49:17;;;;;;;12.60;10.18;;;;;;;1.66;87.74;101725.00;5028037;28;20037;-22
2022/01/19 09:51:44;;;;;;;13.40;10.15;;;;;;;1.68;87.70;101732.88;5029954;28;20473;-24
2022/01/19 09:54:18;;;;;;;12.30;9.65;;;;;;;1.71;87.64;101729.50;5028711;28;20500;-24
2022/01/19 09:56:45;;;;;;;13.32;10.15;;;;;;;1.74;87.89;101714.03;5028507;28;20037;-24
2022/01/19 09:59:14;;;;;;;13.48;10.30;;;;;;;1.76;87.94;101697.66;5029818;28;20021;-24
2022/01/19 10:01:57;;;;;;;15.10;10.15;;;;;;;1.78;87.79;101687.34;5026207;28;20099;-24
2022/01/19 10:04:25;;;;;;;11.30;10.07;;;;;;;1.79;87.63;101686.50;5026629;28;20037;-24
2022/01/19 10:07:13;;;;;;;13.38;10.18;;;;;;;1.83;88.06;101685.81;5029124;28;20033;-24
2022/01/19 10:09:59;;;;;;;12.38;9.63;;;;;;;1.87;88.01;101692.91;5024744;28;20048;-24
2022/01/19 10:18:14;;;;;;;12.33;8.83;;;;;;;1.95;87.45;101685.47;5027728;28;20083;-24
2022/01/19 10:20:40;;;;;;;14.32;10.10;;;;;;;1.99;87.40;101671.75;5027255;28;20064;-24
2022/01/19 10:23:29;;;;;;;11.15;8.93;;;;;;;2.01;87.54;101669.22;5025626;28;20022;-24
2022/01/19 10:25:55;;;;;;;13.27;9.73;;;;;;;2.04;87.55;101653.75;5026588;28;20374;-24
2022/01/19 10:28:20;;;;;;;12.75;10.48;;;;;;;2.04;87.33;101641.59;5025852;28;20087;-25
2022/01/19 10:30:46;;;;;;;11.32;8.32;;;;;;;2.09;87.45;101630.47;5026948;28;20032;-24
2022/01/19 10:33:17;;;;;;;11.25;8.95;;;;;;;2.11;87.59;101621.94;5027205;28;20071;-24
2022/01/19 10:35:47;;;;;;;12.70;9.10;;;;;;;2.15;87.31;101617.72;5032335;28;20021;-21
2022/01/19 10:38:19;;;;;;;12.95;9.90;;;;;;;2.18;87.61;101602.25;5027019;28;20037;-25
2022/01/19 10:41:02;;;;;;;12.73;9.20;;;;;;;2.22;87.39;101592.84;5029561;28;20099;-22
2022/01/19 10:43:28;;;;;;;12.27;8.85;;;;;;;2.28;87.82;101585.28;5025738;28;20032;-23
2022/01/19 10:45:55;;;;;;;12.30;10.00;;;;;;;2.34;87.81;101584.63;5028210;28;20021;-24
2022/01/19 10:48:38;;;;;;;11.40;9.23;;;;;;;2.40;87.83;101593.56;5025865;28;20439;-24
2022/01/19 10:51:16;;;;;;;12.25;9.00;;;;;;;2.48;88.03;101596.50;5023462;28;20029;-24
2022/01/19 10:53:48;;;;;;;13.00;9.77;;;;;;;2.53;88.20;101594.03;5028844;28;20522;-24
2022/01/19 10:56:28;;;;;;;12.88;9.77;;;;;;;2.58;87.84;101595.13;5022943;28;20076;-23
2022/01/19 10:59:04;;;;;;;12.82;8.98;;;;;;;2.61;87.64;101579.63;5026284;28;20083;-24
2022/01/19 11:01:52;;;;;;;13.27;10.60;;;;;;;2.68;87.39;101594.66;5019729;28;20095;-24
2022/01/19 11:04:32;;;;;;;12.18;9.13;;;;;;;2.75;87.77;101582.75;5022627;28;20107;-24
2022/01/19 11:07:00;;;;;;;13.45;9.27;;;;;;;2.81;87.27;101577.75;5019922;28;20543;-24
2022/01/19 11:09:29;;;;;;;11.88;9.10;;;;;;;2.85;87.27;101563.13;5027488;28;20057;-24
2022/01/19 11:12:02;;;;;;;11.63;9.13;;;;;;;2.93;87.07;101561.69;5023306;28;20048;-24
2022/01/19 11:14:28;;;;;;;11.43;9.52;;;;;;;2.97;86.83;101549.69;5018323;28;20037;-23
2022/01/19 11:16:54;;;;;;;12.35;9.27;;;;;;;3.05;87.25;101552.56;5026146;28;20044;-24
2022/01/19 11:19:21;;;;;;;11.98;8.88;;;;;;;3.10;87.20;101543.16;5025307;28;20112;-24
2022/01/19 11:21:55;;;;;;;10.57;8.75;;;;;;;3.17;87.10;101545.16;5023380;28;20028;-25
2022/01/19 11:24:43;;;;;;;10.40;8.68;;;;;;;3.23;86.58;101543.63;5024743;28;20444;-24
2022/01/19 11:27:09;;;;;;;9.52;8.02;;;;;;;3.31;87.08;101542.16;5023157;28;20617;-24
2022/01/19 11:29:37;;;;;;;9.55;8.55;;;;;;;3.35;86.55;101533.63;5021208;28;21427;-24
2022/01/19 11:32:17;;;;;;;11.52;8.75;;;;;;;3.41;86.50;101527.72;5022535;28;20037;-25
2022/01/19 11:34:50;;;;;;;9.68;7.53;;;;;;;3.45;85.59;101514.84;5026161;28;20029;-24
2022/01/19 11:37:38;;;;;;;10.90;8.15;;;;;;;3.50;85.94;101509.75;5019329;28;20429;-25
2022/01/19 11:40:16;;;;;;;9.43;7.65;;;;;;;3.56;86.38;101511.69;5019777;28;20429;-24
2022/01/19 11:42:43;;;;;;;8.73;7.25;;;;;;;3.60;85.68;101500.53;5020632;28;20028;-24
2022/01/19 11:45:37;;;;;;;10.48;7.50;;;;;;;3.67;85.00;101489.44;5024452;28;20037;-24
2022/01/19 11:48:18;;;;;;;8.60;7.35;;;;;;;3.71;85.37;101475.66;5019550;28;20080;-24
2022/01/19 11:50:45;;;;;;;8.68;7.45;;;;;;;3.75;85.86;101471.44;5020729;28;20404;-24
2022/01/19 11:53:12;;;;;;;8.20;6.93;;;;;;;3.79;84.58;101461.97;5024203;28;20038;-24
2022/01/19 11:55:40;;;;;;;8.77;7.78;;;;;;;3.84;84.03;101456.06;5021696;28;20056;-23
2022/01/19 11:58:21;;;;;;;8.07;6.97;;;;;;;3.87;84.65;101434.38;5022343;28;20116;-23
2022/01/19 12:00:52;;;;;;;9.45;6.75;;;;;;;3.91;84.08;101440.59;5021952;28;20036;-24
2022/01/19 12:03:28;;;;;;;7.90;7.05;;;;;;;3.91;83.99;101425.84;5022115;28;20048;-24
2022/01/19 12:05:55;;;;;;;8.90;7.20;;;;;;;3.96;83.57;101423.34;5017967;28;20029;-23
2022/01/19 12:08:22;;;;;;;9.02;7.60;;;;;;;4.00;84.35;101414.78;5025759;28;20036;-24
2022/01/19 12:10:51;;;;;;;10.57;7.38;;;;;;;4.04;83.66;101418.38;5021434;28;20412;-24
2022/01/19 12:13:55;;;;;;;8.75;7.00;;;;;;;4.06;82.75;101419.28;5022306;28;20065;-24
2022/01/19 12:16:48;;;;;;;9.05;7.40;;;;;;;4.08;82.12;101409.78;5023157;28;20082;-23
2022/01/19 12:19:15;;;;;;;11.15;7.38;;;;;;;4.12;82.49;101398.59;5020791;28;20037;-23
2022/01/19 12:21:45;;;;;;;7.18;6.55;;;;;;;4.16;82.13;101407.38;5020001;28;20272;-24
2022/01/19 12:24:22;;;;;;;8.02;6.75;;;;;;;4.18;83.14;101398.78;5019384;28;20022;-24
2022/01/19 12:27:09;;;;;;;7.82;7.03;;;;;;;4.24;82.73;101392.84;5022204;28;20029;-24
2022/01/19 12:29:38;;;;;;;8.40;7.50;;;;;;;4.29;83.54;101385.13;5023561;28;20033;-24
2022/01/19 12:32:29;;;;;;;8.88;7.13;;;;;;;4.32;83.68;101380.00;5022344;28;20055;-24
2022/01/19 12:35:10;;;;;;;8.63;7.65;;;;;;;4.37;82.73;101378.44;5021770;28;20152;-24
2022/01/19 12:37:48;;;;;;;10.30;7.78;;;;;;;4.37;81.80;101370.59;5020978;28;20033;-24
2022/01/19 12:40:21;;;;;;;8.23;7.03;;;;;;;4.38;81.92;101355.78;5020231;28;20112;-24
2022/01/19 12:42:54;;;;;;;9.10;7.03;;;;;;;4.41;80.79;101345.41;5024281;28;20037;-24
2022/01/19 12:45:22;;;;;;;8.77;7.40;;;;;;;4.39;80.50;101340.16;5023242;28;20041;-24
2022/01/19 12:47:50;;;;;;;11.02;8.40;;;;;;;4.43;80.47;101336.78;5020115;28;20029;-24
2022/01/19 12:50:16;;;;;;;10.90;7.30;;;;;;;4.45;80.22;101334.22;5024719;28;21961;-25
2022/01/19 12:52:53;;;;;;;8.65;7.85;;;;;;;4.43;80.14;101336.78;5025273;28;20130;-24
2022/01/19 12:55:29;;;;;;;11.57;7.35;;;;;;;4.47;80.46;101336.00;5017504;28;20129;-24
2022/01/19 12:57:57;;;;;;;9.50;7.60;;;;;;;4.44;80.58;101328.09;5023290;28;20072;-24
2022/01/19 13:00:31;;;;;;;8.45;7.25;;;;;;;4.46;80.83;101315.97;5021775;28;20066;-24
2022/01/19 13:02:57;;;;;;;8.52;7.47;;;;;;;4.49;80.88;101310.84;5021924;28;20024;-24
2022/01/19 13:05:24;;;;;;;9.57;7.80;;;;;;;4.52;80.74;101309.13;5022473;28;21588;-24